sensor_id;sensor_type;location;lat;lon;timestamp;P1;durP1;ratioP1;P2;durP2;ratioP2
58139;SDS011;53185;47.378;18.922;2024-03-02T00:00:57;39.20;;;20.65;;
58139;SDS011;53185;47.378;18.922;2024-03-02T00:03:25;43.58;;;20.20;;
58139;SDS011;53185;47.378;18.922;2024-03-02T00:05:56;47.53;;;19.33;;
58139;SDS011;53185;47.378;18.922;2024-03-02T00:08:24;44.58;;;21.35;;
58139;SDS011;53185;47.378;18.922;2024-03-02T00:10:58;43.28;;;20.67;;
58139;SDS011;53185;47.378;18.922;2024-03-02T00:13:26;38.47;;;20.25;;
58139;SDS011;53185;47.378;18.922;2024-03-02T00:15:54;39.72;;;19.87;;
58139;SDS011;53185;47.378;18.922;2024-03-02T00:18:27;42.42;;;20.20;;
58139;SDS011;53185;47.378;18.922;2024-03-02T00:21:00;40.70;;;19.00;;
58139;SDS011;53185;47.378;18.922;2024-03-02T00:23:30;43.78;;;20.83;;
58139;SDS011;53185;47.378;18.922;2024-03-02T00:25:58;39.55;;;18.67;;
58139;SDS011;53185;47.378;18.922;2024-03-02T00:28:27;36.03;;;18.45;;
58139;SDS011;53185;47.378;18.922;2024-03-02T00:31:09;39.40;;;18.62;;
58139;SDS011;53185;47.378;18.922;2024-03-02T00:33:46;43.47;;;19.35;;
58139;SDS011;53185;47.378;18.922;2024-03-02T00:36:15;38.63;;;18.15;;
58139;SDS011;53185;47.378;18.922;2024-03-02T00:38:45;38.35;;;18.37;;
58139;SDS011;53185;47.378;18.922;2024-03-02T00:44:03;36.72;;;18.40;;
58139;SDS011;53185;47.378;18.922;2024-03-02T00:46:33;38.95;;;18.73;;
58139;SDS011;53185;47.378;18.922;2024-03-02T00:49:02;37.75;;;19.00;;
58139;SDS011;53185;47.378;18.922;2024-03-02T00:51:32;39.90;;;19.85;;
58139;SDS011;53185;47.378;18.922;2024-03-02T00:54:08;39.72;;;19.25;;
58139;SDS011;53185;47.378;18.922;2024-03-02T00:56:36;44.65;;;19.65;;
58139;SDS011;53185;47.378;18.922;2024-03-02T00:59:03;38.95;;;18.70;;
58139;SDS011;53185;47.378;18.922;2024-03-02T01:01:30;30.12;;;16.55;;
58139;SDS011;53185;47.378;18.922;2024-03-02T01:03:58;31.12;;;16.92;;
58139;SDS011;53185;47.378;18.922;2024-03-02T01:06:26;36.97;;;18.67;;
58139;SDS011;53185;47.378;18.922;2024-03-02T01:08:53;37.90;;;18.23;;
58139;SDS011;53185;47.378;18.922;2024-03-02T01:11:20;35.33;;;16.30;;
58139;SDS011;53185;47.378;18.922;2024-03-02T01:13:50;40.63;;;17.50;;
58139;SDS011;53185;47.378;18.922;2024-03-02T01:16:19;35.08;;;17.80;;
58139;SDS011;53185;47.378;18.922;2024-03-02T01:18:46;39.53;;;18.85;;
58139;SDS011;53185;47.378;18.922;2024-03-02T01:21:14;38.28;;;18.62;;
58139;SDS011;53185;47.378;18.922;2024-03-02T01:23:41;34.97;;;16.17;;
58139;SDS011;53185;47.378;18.922;2024-03-02T01:26:09;38.63;;;18.20;;
58139;SDS011;53185;47.378;18.922;2024-03-02T01:28:37;33.28;;;17.10;;
58139;SDS011;53185;47.378;18.922;2024-03-02T01:31:04;36.03;;;17.37;;
58139;SDS011;53185;47.378;18.922;2024-03-02T01:33:31;41.53;;;17.15;;
58139;SDS011;53185;47.378;18.922;2024-03-02T01:35:59;35.13;;;18.60;;
58139;SDS011;53185;47.378;18.922;2024-03-02T01:38:26;35.28;;;17.98;;
58139;SDS011;53185;47.378;18.922;2024-03-02T01:40:55;40.50;;;17.52;;
58139;SDS011;53185;47.378;18.922;2024-03-02T01:43:23;41.95;;;19.12;;
58139;SDS011;53185;47.378;18.922;2024-03-02T01:45:51;37.50;;;17.98;;
58139;SDS011;53185;47.378;18.922;2024-03-02T01:48:18;37.65;;;17.77;;
58139;SDS011;53185;47.378;18.922;2024-03-02T01:50:46;42.10;;;17.83;;
58139;SDS011;53185;47.378;18.922;2024-03-02T01:53:14;36.08;;;16.83;;
58139;SDS011;53185;47.378;18.922;2024-03-02T01:55:42;34.45;;;17.30;;
58139;SDS011;53185;47.378;18.922;2024-03-02T01:58:10;32.63;;;16.10;;
58139;SDS011;53185;47.378;18.922;2024-03-02T02:00:37;41.92;;;17.33;;
58139;SDS011;53185;47.378;18.922;2024-03-02T02:03:05;39.22;;;17.20;;
58139;SDS011;53185;47.378;18.922;2024-03-02T02:05:33;36.05;;;17.10;;
58139;SDS011;53185;47.378;18.922;2024-03-02T02:08:02;36.90;;;16.62;;
58139;SDS011;53185;47.378;18.922;2024-03-02T02:10:29;33.55;;;17.30;;
58139;SDS011;53185;47.378;18.922;2024-03-02T02:12:57;39.90;;;16.85;;
58139;SDS011;53185;47.378;18.922;2024-03-02T02:15:28;33.22;;;16.92;;
58139;SDS011;53185;47.378;18.922;2024-03-02T02:17:57;34.97;;;16.62;;
58139;SDS011;53185;47.378;18.922;2024-03-02T02:20:25;33.20;;;16.50;;
58139;SDS011;53185;47.378;18.922;2024-03-02T02:22:56;37.70;;;16.50;;
58139;SDS011;53185;47.378;18.922;2024-03-02T02:25:25;36.22;;;17.55;;
58139;SDS011;53185;47.378;18.922;2024-03-02T02:27:52;35.25;;;17.58;;
58139;SDS011;53185;47.378;18.922;2024-03-02T02:30:21;35.10;;;17.67;;
58139;SDS011;53185;47.378;18.922;2024-03-02T02:32:57;36.45;;;18.25;;
58139;SDS011;53185;47.378;18.922;2024-03-02T02:35:25;34.72;;;16.60;;
58139;SDS011;53185;47.378;18.922;2024-03-02T02:37:52;37.60;;;17.92;;
58139;SDS011;53185;47.378;18.922;2024-03-02T02:40:21;32.47;;;16.33;;
58139;SDS011;53185;47.378;18.922;2024-03-02T02:42:49;33.00;;;18.15;;
58139;SDS011;53185;47.378;18.922;2024-03-02T02:45:19;34.28;;;18.25;;
58139;SDS011;53185;47.378;18.922;2024-03-02T02:47:47;38.05;;;17.65;;
58139;SDS011;53185;47.378;18.922;2024-03-02T02:50:15;35.35;;;19.15;;
58139;SDS011;53185;47.378;18.922;2024-03-02T02:52:44;43.75;;;19.20;;
58139;SDS011;53185;47.378;18.922;2024-03-02T02:55:12;37.70;;;17.55;;
58139;SDS011;53185;47.378;18.922;2024-03-02T02:57:41;39.00;;;18.25;;
58139;SDS011;53185;47.378;18.922;2024-03-02T03:00:11;38.45;;;19.10;;
58139;SDS011;53185;47.378;18.922;2024-03-02T03:02:46;35.60;;;16.87;;
58139;SDS011;53185;47.378;18.922;2024-03-02T03:05:15;36.08;;;18.08;;
58139;SDS011;53185;47.378;18.922;2024-03-02T03:07:43;39.63;;;17.67;;
58139;SDS011;53185;47.378;18.922;2024-03-02T03:10:12;32.95;;;17.52;;
58139;SDS011;53185;47.378;18.922;2024-03-02T03:12:41;33.30;;;18.50;;
58139;SDS011;53185;47.378;18.922;2024-03-02T03:15:10;33.47;;;16.73;;
58139;SDS011;53185;47.378;18.922;2024-03-02T03:20:09;41.83;;;17.42;;
58139;SDS011;53185;47.378;18.922;2024-03-02T03:22:43;43.17;;;17.73;;
58139;SDS011;53185;47.378;18.922;2024-03-02T03:25:10;39.30;;;17.08;;
58139;SDS011;53185;47.378;18.922;2024-03-02T03:27:37;46.10;;;18.25;;
58139;SDS011;53185;47.378;18.922;2024-03-02T03:30:05;37.10;;;17.20;;
58139;SDS011;53185;47.378;18.922;2024-03-02T03:32:34;38.97;;;17.50;;
58139;SDS011;53185;47.378;18.922;2024-03-02T03:35:01;42.75;;;17.77;;
58139;SDS011;53185;47.378;18.922;2024-03-02T03:37:29;39.10;;;16.92;;
58139;SDS011;53185;47.378;18.922;2024-03-02T03:40:04;37.42;;;17.02;;
58139;SDS011;53185;47.378;18.922;2024-03-02T03:42:38;33.15;;;16.23;;
58139;SDS011;53185;47.378;18.922;2024-03-02T03:45:06;40.85;;;17.62;;
58139;SDS011;53185;47.378;18.922;2024-03-02T03:47:34;42.78;;;18.23;;
58139;SDS011;53185;47.378;18.922;2024-03-02T03:50:01;35.00;;;16.45;;
58139;SDS011;53185;47.378;18.922;2024-03-02T03:55:01;32.05;;;16.15;;
58139;SDS011;53185;47.378;18.922;2024-03-02T03:57:28;34.40;;;16.30;;
58139;SDS011;53185;47.378;18.922;2024-03-02T03:59:55;37.28;;;16.33;;
58139;SDS011;53185;47.378;18.922;2024-03-02T04:02:23;33.65;;;16.83;;
58139;SDS011;53185;47.378;18.922;2024-03-02T04:04:51;34.95;;;17.45;;
58139;SDS011;53185;47.378;18.922;2024-03-02T04:07:18;36.50;;;17.15;;
58139;SDS011;53185;47.378;18.922;2024-03-02T04:09:46;35.38;;;17.37;;
58139;SDS011;53185;47.378;18.922;2024-03-02T04:12:13;43.13;;;18.48;;
58139;SDS011;53185;47.378;18.922;2024-03-02T04:14:40;37.70;;;18.92;;
58139;SDS011;53185;47.378;18.922;2024-03-02T04:17:14;38.83;;;18.52;;
58139;SDS011;53185;47.378;18.922;2024-03-02T04:19:41;31.50;;;18.02;;
58139;SDS011;53185;47.378;18.922;2024-03-02T04:22:08;49.55;;;17.80;;
58139;SDS011;53185;47.378;18.922;2024-03-02T04:24:47;40.60;;;19.45;;
58139;SDS011;53185;47.378;18.922;2024-03-02T04:27:15;36.25;;;17.55;;
58139;SDS011;53185;47.378;18.922;2024-03-02T04:29:42;39.38;;;17.12;;
58139;SDS011;53185;47.378;18.922;2024-03-02T04:32:13;38.83;;;17.95;;
58139;SDS011;53185;47.378;18.922;2024-03-02T04:34:40;37.58;;;18.90;;
58139;SDS011;53185;47.378;18.922;2024-03-02T04:37:08;39.28;;;18.75;;
58139;SDS011;53185;47.378;18.922;2024-03-02T04:39:35;38.45;;;17.85;;
58139;SDS011;53185;47.378;18.922;2024-03-02T04:42:03;39.70;;;19.12;;
58139;SDS011;53185;47.378;18.922;2024-03-02T04:44:30;38.95;;;18.95;;
58139;SDS011;53185;47.378;18.922;2024-03-02T04:46:58;34.80;;;16.67;;
58139;SDS011;53185;47.378;18.922;2024-03-02T04:49:25;39.38;;;18.55;;
58139;SDS011;53185;47.378;18.922;2024-03-02T04:51:53;37.25;;;19.02;;
58139;SDS011;53185;47.378;18.922;2024-03-02T04:54:21;44.53;;;18.55;;
58139;SDS011;53185;47.378;18.922;2024-03-02T04:56:49;39.70;;;18.92;;
58139;SDS011;53185;47.378;18.922;2024-03-02T04:59:17;37.95;;;18.50;;
58139;SDS011;53185;47.378;18.922;2024-03-02T05:01:45;43.53;;;19.40;;
58139;SDS011;53185;47.378;18.922;2024-03-02T05:04:13;40.85;;;20.50;;
58139;SDS011;53185;47.378;18.922;2024-03-02T05:06:40;44.75;;;20.52;;
58139;SDS011;53185;47.378;18.922;2024-03-02T05:09:08;48.50;;;20.05;;
58139;SDS011;53185;47.378;18.922;2024-03-02T05:11:36;47.55;;;20.25;;
58139;SDS011;53185;47.378;18.922;2024-03-02T05:14:06;43.17;;;19.83;;
58139;SDS011;53185;47.378;18.922;2024-03-02T05:16:36;44.50;;;20.75;;
58139;SDS011;53185;47.378;18.922;2024-03-02T05:19:06;37.92;;;19.12;;
58139;SDS011;53185;47.378;18.922;2024-03-02T05:21:34;46.05;;;21.20;;
58139;SDS011;53185;47.378;18.922;2024-03-02T05:24:02;43.25;;;19.90;;
58139;SDS011;53185;47.378;18.922;2024-03-02T05:26:29;41.63;;;19.37;;
58139;SDS011;53185;47.378;18.922;2024-03-02T05:28:57;39.90;;;19.65;;
58139;SDS011;53185;47.378;18.922;2024-03-02T05:31:25;54.63;;;21.70;;
58139;SDS011;53185;47.378;18.922;2024-03-02T05:33:52;51.55;;;19.75;;
58139;SDS011;53185;47.378;18.922;2024-03-02T05:36:24;53.08;;;23.10;;
58139;SDS011;53185;47.378;18.922;2024-03-02T05:38:51;44.83;;;21.12;;
58139;SDS011;53185;47.378;18.922;2024-03-02T05:41:20;49.97;;;21.25;;
58139;SDS011;53185;47.378;18.922;2024-03-02T05:43:48;51.58;;;22.87;;
58139;SDS011;53185;47.378;18.922;2024-03-02T05:46:16;48.03;;;21.17;;
58139;SDS011;53185;47.378;18.922;2024-03-02T05:48:43;46.63;;;20.83;;
58139;SDS011;53185;47.378;18.922;2024-03-02T05:51:10;52.97;;;21.35;;
58139;SDS011;53185;47.378;18.922;2024-03-02T05:53:37;48.53;;;23.02;;
58139;SDS011;53185;47.378;18.922;2024-03-02T05:56:05;55.58;;;23.95;;
58139;SDS011;53185;47.378;18.922;2024-03-02T05:58:33;53.65;;;24.75;;
58139;SDS011;53185;47.378;18.922;2024-03-02T06:01:16;55.75;;;23.80;;
58139;SDS011;53185;47.378;18.922;2024-03-02T06:03:45;59.63;;;24.42;;
58139;SDS011;53185;47.378;18.922;2024-03-02T06:06:13;51.15;;;23.50;;
58139;SDS011;53185;47.378;18.922;2024-03-02T06:08:40;59.95;;;25.35;;
58139;SDS011;53185;47.378;18.922;2024-03-02T06:11:08;52.28;;;23.58;;
58139;SDS011;53185;47.378;18.922;2024-03-02T06:13:36;56.90;;;24.85;;
58139;SDS011;53185;47.378;18.922;2024-03-02T06:16:03;55.90;;;24.15;;
58139;SDS011;53185;47.378;18.922;2024-03-02T06:18:32;57.33;;;25.88;;
58139;SDS011;53185;47.378;18.922;2024-03-02T06:20:59;51.58;;;24.23;;
58139;SDS011;53185;47.378;18.922;2024-03-02T06:23:28;56.50;;;24.05;;
58139;SDS011;53185;47.378;18.922;2024-03-02T06:25:56;64.28;;;24.67;;
58139;SDS011;53185;47.378;18.922;2024-03-02T06:28:24;60.08;;;24.50;;
58139;SDS011;53185;47.378;18.922;2024-03-02T06:30:54;60.97;;;24.65;;
58139;SDS011;53185;47.378;18.922;2024-03-02T06:33:22;56.97;;;23.05;;
58139;SDS011;53185;47.378;18.922;2024-03-02T06:35:49;59.25;;;24.20;;
58139;SDS011;53185;47.378;18.922;2024-03-02T06:38:17;58.97;;;24.25;;
58139;SDS011;53185;47.378;18.922;2024-03-02T06:40:44;48.05;;;24.00;;
58139;SDS011;53185;47.378;18.922;2024-03-02T06:43:11;60.05;;;25.27;;
58139;SDS011;53185;47.378;18.922;2024-03-02T06:45:40;55.47;;;24.67;;
58139;SDS011;53185;47.378;18.922;2024-03-02T06:48:09;53.80;;;22.83;;
58139;SDS011;53185;47.378;18.922;2024-03-02T06:50:38;51.92;;;22.67;;
58139;SDS011;53185;47.378;18.922;2024-03-02T06:53:05;56.70;;;23.52;;
58139;SDS011;53185;47.378;18.922;2024-03-02T06:55:33;42.88;;;23.38;;
58139;SDS011;53185;47.378;18.922;2024-03-02T06:58:00;52.10;;;24.73;;
58139;SDS011;53185;47.378;18.922;2024-03-02T07:00:30;56.42;;;24.00;;
58139;SDS011;53185;47.378;18.922;2024-03-02T07:02:58;49.42;;;23.85;;
58139;SDS011;53185;47.378;18.922;2024-03-02T07:05:25;52.75;;;24.85;;
58139;SDS011;53185;47.378;18.922;2024-03-02T07:07:53;51.17;;;24.33;;
58139;SDS011;53185;47.378;18.922;2024-03-02T07:10:22;54.63;;;25.05;;
58139;SDS011;53185;47.378;18.922;2024-03-02T07:12:51;48.40;;;22.92;;
58139;SDS011;53185;47.378;18.922;2024-03-02T07:15:18;56.40;;;24.12;;
58139;SDS011;53185;47.378;18.922;2024-03-02T07:18:10;51.30;;;24.55;;
58139;SDS011;53185;47.378;18.922;2024-03-02T07:20:38;55.20;;;26.27;;
58139;SDS011;53185;47.378;18.922;2024-03-02T07:23:14;56.75;;;26.48;;
58139;SDS011;53185;47.378;18.922;2024-03-02T07:25:42;77.00;;;30.52;;
58139;SDS011;53185;47.378;18.922;2024-03-02T07:28:20;52.92;;;25.17;;
58139;SDS011;53185;47.378;18.922;2024-03-02T07:30:50;60.03;;;27.92;;
58139;SDS011;53185;47.378;18.922;2024-03-02T07:33:32;58.28;;;26.27;;
58139;SDS011;53185;47.378;18.922;2024-03-02T07:36:00;56.95;;;26.15;;
58139;SDS011;53185;47.378;18.922;2024-03-02T07:38:31;59.10;;;25.35;;
58139;SDS011;53185;47.378;18.922;2024-03-02T07:43:30;47.90;;;23.05;;
58139;SDS011;53185;47.378;18.922;2024-03-02T07:45:59;51.05;;;25.27;;
58139;SDS011;53185;47.378;18.922;2024-03-02T07:48:28;55.85;;;25.48;;
58139;SDS011;53185;47.378;18.922;2024-03-02T07:50:55;64.15;;;26.10;;
58139;SDS011;53185;47.378;18.922;2024-03-02T07:53:22;64.68;;;27.45;;
58139;SDS011;53185;47.378;18.922;2024-03-02T07:56:10;56.60;;;25.27;;
58139;SDS011;53185;47.378;18.922;2024-03-02T07:58:37;67.15;;;26.00;;
58139;SDS011;53185;47.378;18.922;2024-03-02T08:01:05;61.05;;;27.80;;
58139;SDS011;53185;47.378;18.922;2024-03-02T08:03:35;56.92;;;26.02;;
58139;SDS011;53185;47.378;18.922;2024-03-02T08:06:04;59.85;;;25.65;;
58139;SDS011;53185;47.378;18.922;2024-03-02T08:08:33;67.93;;;25.48;;
58139;SDS011;53185;47.378;18.922;2024-03-02T08:11:01;54.92;;;24.48;;
58139;SDS011;53185;47.378;18.922;2024-03-02T08:13:29;63.22;;;27.65;;
58139;SDS011;53185;47.378;18.922;2024-03-02T08:15:57;56.63;;;27.42;;
58139;SDS011;53185;47.378;18.922;2024-03-02T08:18:25;58.33;;;26.50;;
58139;SDS011;53185;47.378;18.922;2024-03-02T08:20:53;58.40;;;27.35;;
58139;SDS011;53185;47.378;18.922;2024-03-02T08:23:23;61.17;;;25.92;;
58139;SDS011;53185;47.378;18.922;2024-03-02T08:25:51;53.95;;;25.25;;
58139;SDS011;53185;47.378;18.922;2024-03-02T08:28:19;63.40;;;28.77;;
58139;SDS011;53185;47.378;18.922;2024-03-02T08:31:00;52.75;;;25.45;;
58139;SDS011;53185;47.378;18.922;2024-03-02T08:33:28;60.55;;;28.25;;
58139;SDS011;53185;47.378;18.922;2024-03-02T08:35:57;55.28;;;28.45;;
58139;SDS011;53185;47.378;18.922;2024-03-02T08:38:27;66.43;;;30.55;;
58139;SDS011;53185;47.378;18.922;2024-03-02T08:40:56;59.13;;;28.42;;
58139;SDS011;53185;47.378;18.922;2024-03-02T08:43:28;67.30;;;25.75;;
58139;SDS011;53185;47.378;18.922;2024-03-02T08:45:56;54.55;;;25.70;;
58139;SDS011;53185;47.378;18.922;2024-03-02T08:48:26;53.03;;;24.37;;
58139;SDS011;53185;47.378;18.922;2024-03-02T08:50:56;63.28;;;27.58;;
58139;SDS011;53185;47.378;18.922;2024-03-02T08:53:24;54.03;;;26.52;;
58139;SDS011;53185;47.378;18.922;2024-03-02T08:55:54;49.93;;;26.37;;
58139;SDS011;53185;47.378;18.922;2024-03-02T08:58:27;49.90;;;22.48;;
58139;SDS011;53185;47.378;18.922;2024-03-02T09:00:55;45.88;;;24.83;;
58139;SDS011;53185;47.378;18.922;2024-03-02T09:03:23;54.70;;;24.02;;
58139;SDS011;53185;47.378;18.922;2024-03-02T09:05:51;56.55;;;23.08;;
58139;SDS011;53185;47.378;18.922;2024-03-02T09:08:21;54.67;;;24.67;;
58139;SDS011;53185;47.378;18.922;2024-03-02T09:10:49;47.40;;;22.20;;
58139;SDS011;53185;47.378;18.922;2024-03-02T09:13:17;47.05;;;22.02;;
58139;SDS011;53185;47.378;18.922;2024-03-02T09:15:45;42.75;;;22.30;;
58139;SDS011;53185;47.378;18.922;2024-03-02T09:18:13;44.38;;;21.58;;
58139;SDS011;53185;47.378;18.922;2024-03-02T09:20:42;44.97;;;22.13;;
58139;SDS011;53185;47.378;18.922;2024-03-02T09:23:09;46.08;;;22.62;;
58139;SDS011;53185;47.378;18.922;2024-03-02T09:25:37;49.72;;;23.23;;
58139;SDS011;53185;47.378;18.922;2024-03-02T09:28:05;51.97;;;24.83;;
58139;SDS011;53185;47.378;18.922;2024-03-02T09:30:35;39.72;;;22.20;;
58139;SDS011;53185;47.378;18.922;2024-03-02T09:33:03;42.88;;;20.35;;
58139;SDS011;53185;47.378;18.922;2024-03-02T09:35:34;38.20;;;19.10;;
58139;SDS011;53185;47.378;18.922;2024-03-02T09:38:02;46.83;;;23.55;;
58139;SDS011;53185;47.378;18.922;2024-03-02T09:40:32;39.50;;;20.05;;
58139;SDS011;53185;47.378;18.922;2024-03-02T09:43:02;44.35;;;21.23;;
58139;SDS011;53185;47.378;18.922;2024-03-02T09:45:32;41.35;;;19.40;;
58139;SDS011;53185;47.378;18.922;2024-03-02T09:48:00;36.97;;;18.85;;
58139;SDS011;53185;47.378;18.922;2024-03-02T09:50:28;47.40;;;19.98;;
58139;SDS011;53185;47.378;18.922;2024-03-02T09:52:55;40.72;;;21.15;;
58139;SDS011;53185;47.378;18.922;2024-03-02T09:55:23;44.88;;;21.52;;
58139;SDS011;53185;47.378;18.922;2024-03-02T09:57:52;41.45;;;20.42;;
58139;SDS011;53185;47.378;18.922;2024-03-02T10:00:20;34.63;;;18.35;;
58139;SDS011;53185;47.378;18.922;2024-03-02T10:02:48;33.80;;;18.35;;
58139;SDS011;53185;47.378;18.922;2024-03-02T10:05:26;35.65;;;17.98;;
58139;SDS011;53185;47.378;18.922;2024-03-02T10:10:46;35.10;;;18.40;;
58139;SDS011;53185;47.378;18.922;2024-03-02T10:15:54;38.33;;;18.52;;
58139;SDS011;53185;47.378;18.922;2024-03-02T10:18:26;35.63;;;17.58;;
58139;SDS011;53185;47.378;18.922;2024-03-02T10:21:12;37.25;;;17.60;;
58139;SDS011;53185;47.378;18.922;2024-03-02T10:23:42;38.10;;;18.77;;
58139;SDS011;53185;47.378;18.922;2024-03-02T10:26:17;32.15;;;18.10;;
58139;SDS011;53185;47.378;18.922;2024-03-02T10:28:48;31.75;;;16.67;;
58139;SDS011;53185;47.378;18.922;2024-03-02T10:31:30;31.30;;;15.55;;
58139;SDS011;53185;47.378;18.922;2024-03-02T10:34:00;25.73;;;16.10;;
58139;SDS011;53185;47.378;18.922;2024-03-02T10:36:29;35.28;;;17.67;;
58139;SDS011;53185;47.378;18.922;2024-03-02T10:39:02;34.05;;;18.12;;
58139;SDS011;53185;47.378;18.922;2024-03-02T10:41:33;31.73;;;15.45;;
58139;SDS011;53185;47.378;18.922;2024-03-02T10:44:03;32.60;;;17.95;;
58139;SDS011;53185;47.378;18.922;2024-03-02T10:46:32;29.15;;;15.40;;
58139;SDS011;53185;47.378;18.922;2024-03-02T10:49:03;25.90;;;14.65;;
58139;SDS011;53185;47.378;18.922;2024-03-02T10:51:37;30.10;;;15.00;;
58139;SDS011;53185;47.378;18.922;2024-03-02T10:54:07;29.20;;;15.52;;
58139;SDS011;53185;47.378;18.922;2024-03-02T10:56:39;31.55;;;16.15;;
58139;SDS011;53185;47.378;18.922;2024-03-02T10:59:24;25.20;;;15.13;;
58139;SDS011;53185;47.378;18.922;2024-03-02T11:01:58;32.75;;;17.25;;
58139;SDS011;53185;47.378;18.922;2024-03-02T11:04:32;33.63;;;17.52;;
58139;SDS011;53185;47.378;18.922;2024-03-02T11:10:09;29.75;;;16.00;;
58139;SDS011;53185;47.378;18.922;2024-03-02T11:13:00;28.55;;;14.77;;
58139;SDS011;53185;47.378;18.922;2024-03-02T11:15:40;32.88;;;17.02;;
58139;SDS011;53185;47.378;18.922;2024-03-02T11:18:11;24.70;;;13.43;;
58139;SDS011;53185;47.378;18.922;2024-03-02T11:20:57;22.15;;;13.05;;
58139;SDS011;53185;47.378;18.922;2024-03-02T11:27:07;26.23;;;12.85;;
58139;SDS011;53185;47.378;18.922;2024-03-02T11:32:54;21.05;;;11.88;;
58139;SDS011;53185;47.378;18.922;2024-03-02T11:35:36;19.65;;;11.30;;
58139;SDS011;53185;47.378;18.922;2024-03-02T11:38:05;17.23;;;10.45;;
58139;SDS011;53185;47.378;18.922;2024-03-02T11:40:37;17.17;;;10.55;;
58139;SDS011;53185;47.378;18.922;2024-03-02T11:43:11;20.30;;;12.37;;
58139;SDS011;53185;47.378;18.922;2024-03-02T11:45:41;21.33;;;11.12;;
58139;SDS011;53185;47.378;18.922;2024-03-02T11:48:15;17.52;;;10.45;;
58139;SDS011;53185;47.378;18.922;2024-03-02T11:50:47;18.37;;;11.57;;
58139;SDS011;53185;47.378;18.922;2024-03-02T11:53:19;16.00;;;10.07;;
58139;SDS011;53185;47.378;18.922;2024-03-02T11:55:48;20.65;;;12.05;;
58139;SDS011;53185;47.378;18.922;2024-03-02T11:58:17;18.45;;;10.90;;
58139;SDS011;53185;47.378;18.922;2024-03-02T12:00:50;21.85;;;11.70;;
58139;SDS011;53185;47.378;18.922;2024-03-02T12:03:20;18.67;;;10.73;;
58139;SDS011;53185;47.378;18.922;2024-03-02T12:05:53;20.55;;;10.63;;
58139;SDS011;53185;47.378;18.922;2024-03-02T12:08:21;20.48;;;12.37;;
58139;SDS011;53185;47.378;18.922;2024-03-02T12:10:57;16.50;;;9.32;;
58139;SDS011;53185;47.378;18.922;2024-03-02T12:13:25;18.33;;;12.27;;
58139;SDS011;53185;47.378;18.922;2024-03-02T12:15:53;13.68;;;9.27;;
58139;SDS011;53185;47.378;18.922;2024-03-02T12:18:23;14.55;;;8.68;;
58139;SDS011;53185;47.378;18.922;2024-03-02T12:20:50;15.50;;;9.60;;
58139;SDS011;53185;47.378;18.922;2024-03-02T12:23:26;15.55;;;10.18;;
58139;SDS011;53185;47.378;18.922;2024-03-02T12:25:54;16.87;;;10.38;;
58139;SDS011;53185;47.378;18.922;2024-03-02T12:28:22;15.82;;;9.55;;
58139;SDS011;53185;47.378;18.922;2024-03-02T12:30:49;16.98;;;10.00;;
58139;SDS011;53185;47.378;18.922;2024-03-02T12:33:17;16.30;;;9.88;;
58139;SDS011;53185;47.378;18.922;2024-03-02T12:35:46;19.92;;;11.45;;
58139;SDS011;53185;47.378;18.922;2024-03-02T12:38:17;15.27;;;10.65;;
58139;SDS011;53185;47.378;18.922;2024-03-02T12:40:47;18.52;;;11.32;;
58139;SDS011;53185;47.378;18.922;2024-03-02T12:43:16;14.73;;;10.00;;
58139;SDS011;53185;47.378;18.922;2024-03-02T12:45:43;15.52;;;9.80;;
58139;SDS011;53185;47.378;18.922;2024-03-02T12:48:11;15.68;;;9.32;;
58139;SDS011;53185;47.378;18.922;2024-03-02T12:50:40;18.40;;;11.25;;
58139;SDS011;53185;47.378;18.922;2024-03-02T12:53:13;18.45;;;11.27;;
58139;SDS011;53185;47.378;18.922;2024-03-02T12:55:48;15.45;;;9.52;;
58139;SDS011;53185;47.378;18.922;2024-03-02T12:58:17;13.77;;;9.43;;
58139;SDS011;53185;47.378;18.922;2024-03-02T13:00:50;18.35;;;11.27;;
58139;SDS011;53185;47.378;18.922;2024-03-02T13:03:39;22.55;;;11.88;;
58139;SDS011;53185;47.378;18.922;2024-03-02T13:06:08;19.55;;;11.15;;
58139;SDS011;53185;47.378;18.922;2024-03-02T13:08:42;23.50;;;12.93;;
58139;SDS011;53185;47.378;18.922;2024-03-02T13:11:11;22.80;;;12.48;;
58139;SDS011;53185;47.378;18.922;2024-03-02T13:13:55;20.95;;;11.90;;
58139;SDS011;53185;47.378;18.922;2024-03-02T13:19:00;21.48;;;12.35;;
58139;SDS011;53185;47.378;18.922;2024-03-02T13:21:28;23.05;;;13.25;;
58139;SDS011;53185;47.378;18.922;2024-03-02T13:23:57;24.40;;;13.27;;
58139;SDS011;53185;47.378;18.922;2024-03-02T13:26:27;27.02;;;13.38;;
58139;SDS011;53185;47.378;18.922;2024-03-02T13:28:56;52.25;;;24.95;;
58139;SDS011;53185;47.378;18.922;2024-03-02T13:31:24;22.00;;;12.98;;
58139;SDS011;53185;47.378;18.922;2024-03-02T13:33:52;23.58;;;13.23;;
58139;SDS011;53185;47.378;18.922;2024-03-02T13:36:21;37.42;;;16.55;;
58139;SDS011;53185;47.378;18.922;2024-03-02T13:38:48;35.00;;;17.55;;
58139;SDS011;53185;47.378;18.922;2024-03-02T13:41:18;30.10;;;13.68;;
58139;SDS011;53185;47.378;18.922;2024-03-02T13:43:47;25.27;;;14.63;;
58139;SDS011;53185;47.378;18.922;2024-03-02T13:46:19;25.30;;;13.40;;
58139;SDS011;53185;47.378;18.922;2024-03-02T13:48:47;28.00;;;13.82;;
58139;SDS011;53185;47.378;18.922;2024-03-02T13:51:19;24.58;;;13.40;;
58139;SDS011;53185;47.378;18.922;2024-03-02T13:53:46;31.60;;;14.05;;
58139;SDS011;53185;47.378;18.922;2024-03-02T13:56:14;32.63;;;15.38;;
58139;SDS011;53185;47.378;18.922;2024-03-02T13:58:42;30.23;;;14.50;;
58139;SDS011;53185;47.378;18.922;2024-03-02T14:01:11;34.25;;;12.88;;
58139;SDS011;53185;47.378;18.922;2024-03-02T14:03:40;29.67;;;14.38;;
58139;SDS011;53185;47.378;18.922;2024-03-02T14:06:08;28.52;;;15.02;;
58139;SDS011;53185;47.378;18.922;2024-03-02T14:08:37;26.80;;;14.20;;
58139;SDS011;53185;47.378;18.922;2024-03-02T14:11:06;33.97;;;16.33;;
58139;SDS011;53185;47.378;18.922;2024-03-02T14:13:34;41.78;;;19.33;;
58139;SDS011;53185;47.378;18.922;2024-03-02T14:16:02;36.38;;;16.45;;
58139;SDS011;53185;47.378;18.922;2024-03-02T14:18:31;31.65;;;15.45;;
58139;SDS011;53185;47.378;18.922;2024-03-02T14:20:59;30.33;;;15.05;;
58139;SDS011;53185;47.378;18.922;2024-03-02T14:23:30;44.33;;;21.20;;
58139;SDS011;53185;47.378;18.922;2024-03-02T14:26:00;39.75;;;17.08;;
58139;SDS011;53185;47.378;18.922;2024-03-02T14:28:28;36.10;;;16.58;;
58139;SDS011;53185;47.378;18.922;2024-03-02T14:31:16;34.72;;;16.70;;
58139;SDS011;53185;47.378;18.922;2024-03-02T14:33:44;35.78;;;16.25;;
58139;SDS011;53185;47.378;18.922;2024-03-02T14:36:13;39.15;;;17.58;;
58139;SDS011;53185;47.378;18.922;2024-03-02T14:38:41;36.88;;;16.27;;
58139;SDS011;53185;47.378;18.922;2024-03-02T14:41:09;36.90;;;16.70;;
58139;SDS011;53185;47.378;18.922;2024-03-02T14:43:36;32.08;;;16.48;;
58139;SDS011;53185;47.378;18.922;2024-03-02T14:46:05;43.03;;;16.45;;
58139;SDS011;53185;47.378;18.922;2024-03-02T14:48:33;38.70;;;17.25;;
58139;SDS011;53185;47.378;18.922;2024-03-02T14:51:05;46.58;;;19.08;;